Portada
METAR-TAF:

METAR-TAF

Aeroports :

Tanegashima, Japó

latitud: 30-33N, longitud: 130-57E, altitud: 92 m

Observació

L'informe es va fer fa 26 minuts, a les 05:00 UTC
Vent 19 kt del Oest
Temperatura 24°C
Humitat 100%
Pressió 1006 hPa
Visibilitat: 5000 m
Escasses núvols a una alçada de 100 ft
Núvols disperses a una alçada de 200 ft
Cel ennuvolat a una alçada de 400 ft
boirina,

METAR: RJFG 210500Z 28019KT 5000 BR FEW001 SCT002 BKN004 24/24 Q1006

Hora: 14:26 (05:26 UTC)


TAF: manca

Observacions i pronòstics meteorològics de més de 4000 aeroports (METAR i TAF).

Les estacions disponibles són els punts grocs i vermells al mapa.

Posi el ratolí al punt desitjat per veure el nom de l'estació.

Feu clic per veure les observacions i els pronòstics meteorològics.

Per canviar el mapa: feu clic els botons verds amb una creu de color negre per apropar; al botó verd amb un guió per allunyar la imatge; o en les fletxes verdes per a mapes adjacents.


METAR-TAF: